Time;durP1;ratioP1;P1;durP2;ratioP2;P2;SDS_P1;SDS_P2;PMS_P1;PMS_P2;Temp;Humidity;BMP_temperature;BMP_pressure;BME280_temperature;BME280_humidity;BME280_pressure;Samples;Min_cycle;Max_cycle;Signal;HPM_P1;HPM_P2
2024/01/31 00:00:43;;;;;;;5.25;4.80;;;;;;;1.25;57.22;101964.06;4355967;32;33570;-83
2024/01/31 00:03:11;;;;;;;4.03;3.72;;;;;;;0.84;57.85;101977.53;4374012;32;33913;-83
2024/01/31 00:05:39;;;;;;;4.03;3.83;;;;;;;0.97;58.25;101971.88;4348012;32;32929;-83
2024/01/31 00:08:07;;;;;;;4.97;4.65;;;;;;;0.61;58.79;101972.50;4356516;32;33325;-83
2024/01/31 00:10:34;;;;;;;6.12;5.65;;;;;;;0.54;59.19;101973.16;4353866;32;33501;-82
2024/01/31 00:13:02;;;;;;;4.90;3.97;;;;;;;0.42;59.90;101972.75;4367005;32;32986;-82
2024/01/31 00:15:30;;;;;;;2.08;1.80;;;;;;;0.55;58.87;101974.03;4373517;32;33841;-83
2024/01/31 00:17:58;;;;;;;5.32;4.78;;;;;;;0.58;59.08;101980.22;4376528;32;34633;-82
2024/01/31 00:20:26;;;;;;;3.53;3.25;;;;;;;0.74;58.66;101971.19;4347818;32;34163;-82
2024/01/31 00:22:53;;;;;;;4.78;4.35;;;;;;;0.52;58.76;101969.63;4355726;32;32156;-82
2024/01/31 00:25:21;;;;;;;7.37;6.10;;;;;;;0.56;59.18;101970.59;4362491;32;32339;-82
2024/01/31 00:27:49;;;;;;;4.70;4.40;;;;;;;0.56;59.04;101966.28;4362587;32;34105;-83
2024/01/31 00:30:17;;;;;;;2.28;2.15;;;;;;;0.42;59.48;101973.63;4357958;32;33722;-83
2024/01/31 00:32:45;;;;;;;1.75;1.65;;;;;;;0.29;60.17;101979.28;4360684;32;32904;-83
2024/01/31 00:35:13;;;;;;;1.67;1.62;;;;;;;0.49;59.13;101975.59;4345216;32;32055;-84
2024/01/31 00:37:40;;;;;;;3.53;2.90;;;;;;;0.54;59.06;101972.28;4336288;32;32727;-83
2024/01/31 00:40:09;;;;;;;1.92;1.83;;;;;;;0.85;58.08;101966.31;4363149;32;32374;-83
2024/01/31 00:42:38;;;;;;;4.18;1.85;;;;;;;0.53;58.39;101971.41;4361739;32;33202;-83
2024/01/31 00:45:06;;;;;;;2.85;2.67;;;;;;;0.66;58.54;101965.72;4359347;32;33194;-83
2024/01/31 00:47:34;;;;;;;4.43;4.18;;;;;;;0.57;58.26;101972.34;4355358;32;33414;-83
2024/01/31 00:50:03;;;;;;;5.60;5.05;;;;;;;0.40;59.03;101977.03;4368910;32;33922;-84
2024/01/31 00:52:31;;;;;;;2.42;2.22;;;;;;;0.30;59.38;101968.06;4361612;32;33357;-84
2024/01/31 00:54:59;;;;;;;4.15;3.78;;;;;;;0.30;59.11;101970.66;4368263;32;33558;-82
2024/01/31 00:57:27;;;;;;;1.77;1.70;;;;;;;0.23;59.32;101974.75;4358361;32;33845;-82
2024/01/31 00:59:55;;;;;;;0.98;0.82;;;;;;;0.21;59.74;101973.81;4356213;32;33858;-82
2024/01/31 01:02:22;;;;;;;6.03;4.00;;;;;;;0.33;58.94;101956.84;4344602;32;33012;-82
2024/01/31 01:04:52;;;;;;;3.08;2.97;;;;;;;0.38;58.62;101965.69;4354574;32;33043;-82
2024/01/31 01:07:20;;;;;;;1.35;1.33;;;;;;;0.45;58.70;101963.34;4354461;32;33678;-82
2024/01/31 01:09:48;;;;;;;2.20;2.10;;;;;;;0.35;58.91;101960.41;4358318;32;33441;-82
2024/01/31 01:12:16;;;;;;;2.28;2.17;;;;;;;0.29;58.32;101966.28;4355355;32;33648;-83
2024/01/31 01:14:43;;;;;;;0.68;0.68;;;;;;;0.38;58.60;101950.09;4372248;32;33481;-82
2024/01/31 01:17:11;;;;;;;3.35;3.15;;;;;;;0.13;58.60;101964.00;4354823;32;32547;-82
2024/01/31 01:19:39;;;;;;;0.88;0.85;;;;;;;0.21;58.88;101958.25;4351799;32;33912;-82
2024/01/31 01:22:07;;;;;;;2.12;2.03;;;;;;;0.18;58.81;101962.44;4343638;32;33050;-82
2024/01/31 01:24:35;;;;;;;1.48;1.37;;;;;;;0.28;58.23;101958.44;4355372;32;32966;-82
2024/01/31 01:27:03;;;;;;;3.08;2.83;;;;;;;0.28;58.52;101945.44;4358027;32;33698;-82
2024/01/31 01:29:31;;;;;;;3.65;3.42;;;;;;;0.34;57.79;101937.88;4364807;32;33930;-82
2024/01/31 01:31:59;;;;;;;3.60;3.37;;;;;;;0.01;59.31;101948.91;4372620;32;32574;-82
2024/01/31 01:34:27;;;;;;;2.87;2.67;;;;;;;0.01;58.77;101955.81;4372137;32;33045;-83
2024/01/31 01:36:55;;;;;;;2.85;1.65;;;;;;;-0.09;59.46;101950.31;4358920;32;32966;-82
2024/01/31 01:39:23;;;;;;;3.65;2.75;;;;;;;-0.10;59.67;101950.25;4360323;32;32501;-83
2024/01/31 01:41:51;;;;;;;3.55;3.35;;;;;;;-0.03;59.52;101952.22;4351114;32;33214;-83
2024/01/31 01:44:18;;;;;;;1.50;1.42;;;;;;;-0.10;59.51;101939.84;4349937;32;32497;-83
2024/01/31 01:46:46;;;;;;;3.15;2.97;;;;;;;0.09;58.39;101942.22;4360571;32;32685;-83
2024/01/31 01:49:14;;;;;;;0.82;0.82;;;;;;;-0.06;58.77;101942.59;4361374;32;33969;-83
2024/01/31 01:51:44;;;;;;;1.33;1.33;;;;;;;0.10;57.69;101948.34;4361346;32;32725;-84
2024/01/31 01:54:12;;;;;;;1.45;1.33;;;;;;;0.14;57.87;101940.69;4346294;32;32449;-84
2024/01/31 01:56:44;;;;;;;0.85;0.85;;;;;;;0.22;57.80;101931.41;4342264;32;33620;-84
2024/01/31 01:59:13;;;;;;;1.90;1.67;;;;;;;0.23;57.75;101930.56;4362320;32;33131;-84
2024/01/31 02:01:42;;;;;;;2.47;2.28;;;;;;;0.08;57.93;101919.69;4356823;32;34187;-84
2024/01/31 02:04:10;;;;;;;3.33;2.75;;;;;;;0.12;58.09;101918.97;4375076;32;33345;-84
2024/01/31 02:06:38;;;;;;;1.40;1.37;;;;;;;0.09;58.26;101905.88;4373469;32;33793;-83
2024/01/31 02:09:06;;;;;;;3.83;3.62;;;;;;;-0.04;58.74;101924.50;4370786;32;33593;-83
2024/01/31 02:11:34;;;;;;;1.05;1.05;;;;;;;0.01;57.89;101911.66;4346604;32;32998;-83
2024/01/31 02:14:02;;;;;;;3.47;3.30;;;;;;;-0.02;57.88;101896.84;4361702;32;33068;-84
2024/01/31 02:16:30;;;;;;;5.03;4.60;;;;;;;-0.19;58.61;101903.19;4353622;32;33968;-83
2024/01/31 02:19:01;;;;;;;3.03;2.83;;;;;;;-0.02;57.84;101907.25;4368846;32;34262;-83
2024/01/31 02:21:30;;;;;;;1.33;1.33;;;;;;;0.12;57.62;101905.97;4351635;32;33500;-84
2024/01/31 02:23:57;;;;;;;1.77;1.67;;;;;;;0.09;57.49;101897.19;4347275;32;33235;-83
2024/01/31 02:26:26;;;;;;;2.60;2.40;;;;;;;-0.17;57.86;101906.75;4357251;32;33492;-83
2024/01/31 02:28:54;;;;;;;2.72;2.53;;;;;;;-0.24;58.95;101910.81;4358689;32;34479;-82
2024/01/31 02:31:21;;;;;;;2.05;1.95;;;;;;;-0.29;59.10;101905.47;4359727;32;34090;-83
2024/01/31 02:33:50;;;;;;;2.10;1.90;;;;;;;-0.17;58.03;101901.53;4360249;32;33579;-82
2024/01/31 02:36:17;;;;;;;2.95;2.80;;;;;;;-0.21;58.23;101902.25;4370729;32;33838;-82
2024/01/31 02:38:45;;;;;;;1.80;1.70;;;;;;;-0.31;58.37;101899.34;4362447;32;34197;-82
2024/01/31 02:41:13;;;;;;;1.23;1.23;;;;;;;-0.14;58.37;101901.63;4372867;32;34575;-82
2024/01/31 02:43:42;;;;;;;2.22;1.58;;;;;;;0.01;57.61;101891.78;4376914;32;31956;-82
2024/01/31 02:46:10;;;;;;;1.85;1.75;;;;;;;-0.09;57.75;101884.50;4370880;32;33468;-82
2024/01/31 02:48:39;;;;;;;0.15;0.15;;;;;;;-0.15;58.13;101892.06;4365235;32;32715;-83
2024/01/31 02:51:06;;;;;;;4.18;3.42;;;;;;;-0.37;58.87;101886.19;4373733;32;34505;-82
2024/01/31 02:53:34;;;;;;;2.72;2.55;;;;;;;-0.05;57.82;101876.88;4355828;32;33103;-83
2024/01/31 02:56:02;;;;;;;2.12;2.03;;;;;;;-0.15;57.90;101877.37;4356139;32;33184;-82
2024/01/31 02:58:30;;;;;;;2.42;2.22;;;;;;;-0.49;58.86;101872.78;4367912;32;33978;-82
2024/01/31 03:00:58;;;;;;;9.25;3.87;;;;;;;-0.30;58.14;101882.94;4362965;32;33632;-82
2024/01/31 03:03:26;;;;;;;0.77;0.77;;;;;;;-0.35;58.75;101878.44;4362465;32;32878;-83
2024/01/31 03:05:54;;;;;;;1.52;1.52;;;;;;;-0.36;58.67;101885.34;4361556;32;33500;-83
2024/01/31 03:08:21;;;;;;;1.65;1.65;;;;;;;-0.28;57.97;101888.22;4350915;32;33758;-83
2024/01/31 03:10:49;;;;;;;0.80;0.80;;;;;;;-0.08;57.37;101886.28;4357896;32;34473;-83
2024/01/31 03:13:16;;;;;;;5.53;2.42;;;;;;;-0.14;56.56;101886.97;4338345;32;33245;-83
2024/01/31 03:15:44;;;;;;;1.15;1.15;;;;;;;-0.41;58.07;101893.81;4337277;32;32370;-82
2024/01/31 03:18:12;;;;;;;0.75;0.75;;;;;;;-0.36;58.13;101890.53;4360136;32;34589;-83
2024/01/31 03:20:40;;;;;;;3.03;2.75;;;;;;;-0.34;57.72;101896.66;4372668;32;34194;-84
2024/01/31 03:23:08;;;;;;;2.72;2.58;;;;;;;-0.36;57.72;101894.84;4346851;32;35299;-84
2024/01/31 03:25:36;;;;;;;1.42;1.40;;;;;;;-0.29;57.67;101892.50;4337372;32;33557;-84
2024/01/31 03:28:05;;;;;;;2.08;1.98;;;;;;;-0.41;57.80;101892.09;4351924;32;34153;-83
2024/01/31 03:30:32;;;;;;;0.43;0.43;;;;;;;-0.42;58.07;101894.66;4358949;32;34427;-82
2024/01/31 03:33:00;;;;;;;1.95;1.85;;;;;;;-0.29;57.42;101887.28;4357948;32;33002;-82
2024/01/31 03:35:28;;;;;;;2.12;2.03;;;;;;;-0.35;57.41;101876.72;4358731;32;33123;-82
2024/01/31 03:37:56;;;;;;;2.00;1.90;;;;;;;-0.32;56.85;101882.03;4356429;32;33766;-83
2024/01/31 03:40:24;;;;;;;1.08;1.08;;;;;;;-0.17;56.48;101880.78;4360654;32;34399;-83
2024/01/31 03:42:52;;;;;;;2.40;0.77;;;;;;;-0.40;57.02;101878.28;4347404;32;33417;-83
2024/01/31 03:45:19;;;;;;;0.17;0.17;;;;;;;-0.39;57.38;101880.03;4338570;32;33149;-83
2024/01/31 03:47:47;;;;;;;1.95;1.85;;;;;;;-0.32;56.97;101881.16;4358221;32;33168;-83
2024/01/31 03:50:15;;;;;;;3.42;2.87;;;;;;;-0.53;57.84;101891.66;4367754;32;34155;-83
2024/01/31 03:52:43;;;;;;;3.15;1.98;;;;;;;-0.32;57.13;101882.03;4348690;32;32350;-84
2024/01/31 03:55:11;;;;;;;1.42;1.42;;;;;;;-0.49;57.40;101883.16;4347508;32;33099;-84
2024/01/31 03:57:39;;;;;;;2.00;0.65;;;;;;;-0.46;57.30;101883.28;4371163;32;32616;-84
2024/01/31 04:00:09;;;;;;;1.20;1.15;;;;;;;-0.65;58.49;101880.87;4348229;32;33771;-84
2024/01/31 04:02:37;;;;;;;2.50;2.05;;;;;;;-0.66;58.73;101892.06;4374580;32;34169;-84
2024/01/31 04:05:09;;;;;;;1.98;1.87;;;;;;;-0.69;58.27;101885.06;4353620;32;34507;-84
2024/01/31 04:07:38;;;;;;;0.90;0.90;;;;;;;-0.58;58.48;101886.31;4349019;32;35173;-84
2024/01/31 04:10:10;;;;;;;1.98;1.87;;;;;;;-0.57;57.15;101889.78;4356171;32;33445;-84
2024/01/31 04:12:38;;;;;;;0.50;0.50;;;;;;;-0.59;58.16;101886.25;4361523;32;33843;-83
2024/01/31 04:15:06;;;;;;;0.77;0.77;;;;;;;-0.82;58.53;101894.09;4332123;32;33185;-84
2024/01/31 04:17:33;;;;;;;1.40;1.30;;;;;;;-0.68;57.83;101896.31;4373419;32;32692;-84
2024/01/31 04:20:02;;;;;;;1.90;1.37;;;;;;;-0.61;58.00;101901.78;4371052;32;33989;-83
2024/01/31 04:22:30;;;;;;;1.75;1.65;;;;;;;-0.66;57.99;101907.66;4373045;32;33072;-82
2024/01/31 04:24:59;;;;;;;1.95;1.85;;;;;;;-0.91;58.24;101905.84;4359975;32;32819;-83
2024/01/31 04:27:27;;;;;;;1.25;1.25;;;;;;;-0.89;58.66;101906.81;4360312;32;35138;-83
2024/01/31 04:29:54;;;;;;;0.52;0.52;;;;;;;-0.82;58.04;101904.47;4368152;32;33873;-82
2024/01/31 04:32:23;;;;;;;1.30;1.12;;;;;;;-0.63;57.67;101905.13;4348620;32;32103;-82
2024/01/31 04:34:51;;;;;;;0.65;0.65;;;;;;;-0.75;57.83;101903.00;4372994;32;34606;-82
2024/01/31 04:37:19;;;;;;;2.33;2.22;;;;;;;-0.67;57.55;101904.13;4356547;32;33063;-82
2024/01/31 04:39:50;;;;;;;0.57;0.57;;;;;;;-0.79;57.81;101909.78;4350578;32;32480;-82
2024/01/31 04:42:18;;;;;;;2.00;1.90;;;;;;;-0.63;57.60;101894.75;4368492;32;33124;-82
2024/01/31 04:44:46;;;;;;;10.55;3.25;;;;;;;-0.56;57.41;101899.34;4362025;32;33468;-82
2024/01/31 04:47:15;;;;;;;1.25;1.25;;;;;;;-0.68;57.50;101907.56;4358899;32;35215;-82
2024/01/31 04:49:43;;;;;;;0.65;0.65;;;;;;;-0.48;57.15;101895.28;4373664;32;33652;-82
2024/01/31 04:52:11;;;;;;;2.25;2.15;;;;;;;-0.62;57.01;101893.94;4366164;32;33176;-82
2024/01/31 04:54:39;;;;;;;1.65;1.55;;;;;;;-0.57;57.71;101887.19;4372479;32;33532;-82
2024/01/31 04:57:07;;;;;;;1.90;1.10;;;;;;;-0.59;57.79;101887.13;4359545;32;34166;-82
2024/01/31 04:59:38;;;;;;;1.65;1.55;;;;;;;-0.66;57.54;101889.47;4356220;32;33807;-82
2024/01/31 05:02:07;;;;;;;1.30;1.20;;;;;;;-0.61;57.70;101885.34;4373500;32;33520;-82
2024/01/31 05:04:39;;;;;;;3.42;1.30;;;;;;;-0.48;57.19;101889.22;4363265;32;33235;-82
2024/01/31 05:07:07;;;;;;;2.40;2.20;;;;;;;-0.63;57.77;101889.56;4351812;32;33006;-82
2024/01/31 05:09:36;;;;;;;1.87;1.75;;;;;;;-0.66;57.79;101894.69;4346983;32;32050;-82
2024/01/31 05:12:04;;;;;;;0.40;0.40;;;;;;;-0.77;58.10;101895.16;4359002;32;34103;-82
2024/01/31 05:14:32;;;;;;;0.80;0.80;;;;;;;-0.85;58.21;101904.37;4352633;32;32682;-81
2024/01/31 05:17:00;;;;;;;1.95;1.85;;;;;;;-0.83;58.35;101896.66;4367535;32;33842;-81
2024/01/31 05:19:28;;;;;;;0.77;0.77;;;;;;;-0.68;58.03;101901.50;4370894;32;32669;-82
2024/01/31 05:21:58;;;;;;;2.30;1.08;;;;;;;-0.88;58.47;101904.25;4361738;32;34359;-82
2024/01/31 05:24:26;;;;;;;0.80;0.80;;;;;;;-0.98;58.51;101903.88;4353772;32;33647;-82
2024/01/31 05:26:54;;;;;;;0.28;0.28;;;;;;;-0.79;58.01;101899.41;4359886;32;33723;-82
2024/01/31 05:29:21;;;;;;;2.12;1.85;;;;;;;-0.82;58.08;101904.47;4373938;32;34352;-82
2024/01/31 05:31:49;;;;;;;1.10;1.10;;;;;;;-0.86;58.28;101896.53;4372528;32;32017;-82
2024/01/31 05:34:17;;;;;;;2.90;2.70;;;;;;;-0.89;57.95;101899.91;4346732;32;32653;-82
2024/01/31 05:36:45;;;;;;;1.48;1.37;;;;;;;-0.90;58.59;101903.34;4353273;32;33283;-83
2024/01/31 05:39:13;;;;;;;1.17;1.17;;;;;;;-0.86;58.13;101902.59;4355946;32;34547;-83
2024/01/31 05:41:42;;;;;;;5.00;3.17;;;;;;;-0.98;58.51;101901.28;4369152;32;33367;-83
2024/01/31 05:44:10;;;;;;;0.35;0.35;;;;;;;-0.81;57.87;101895.88;4341556;32;33086;-83
2024/01/31 05:46:38;;;;;;;0.70;0.70;;;;;;;-0.98;58.53;101899.56;4353047;32;33221;-83
2024/01/31 05:49:06;;;;;;;3.62;2.08;;;;;;;-0.89;57.87;101897.31;4357187;32;34049;-83
2024/01/31 05:51:34;;;;;;;1.50;1.48;;;;;;;-0.89;57.88;101892.13;4367997;32;33992;-83
2024/01/31 05:54:02;;;;;;;4.25;3.87;;;;;;;-0.84;57.38;101895.78;4359118;32;33502;-83
2024/01/31 05:56:30;;;;;;;1.55;1.45;;;;;;;-0.94;57.99;101892.78;4358567;32;33892;-84
2024/01/31 05:58:58;;;;;;;9.52;5.57;;;;;;;-1.16;58.96;101896.28;4358340;32;32786;-83
2024/01/31 06:01:26;;;;;;;0.65;0.65;;;;;;;-0.93;58.16;101894.56;4349206;32;32294;-83
2024/01/31 06:03:54;;;;;;;2.37;2.17;;;;;;;-1.01;58.44;101889.06;4345418;32;34251;-83
2024/01/31 06:06:22;;;;;;;1.30;1.23;;;;;;;-0.99;58.64;101890.03;4347065;32;33555;-83
2024/01/31 06:08:49;;;;;;;0.47;0.47;;;;;;;-0.87;58.23;101884.41;4371940;32;33988;-83
2024/01/31 06:11:17;;;;;;;2.30;2.20;;;;;;;-0.83;57.82;101884.56;4356827;32;33122;-82
2024/01/31 06:13:45;;;;;;;3.10;2.05;;;;;;;-0.99;57.91;101887.44;4374979;32;33811;-82
2024/01/31 06:16:14;;;;;;;1.08;1.00;;;;;;;-0.96;58.00;101890.13;4355409;32;36266;-83
2024/01/31 06:18:43;;;;;;;0.52;0.52;;;;;;;-0.90;57.79;101895.56;4355811;32;33870;-83
2024/01/31 06:21:10;;;;;;;2.42;2.33;;;;;;;-1.01;58.01;101896.84;4362908;32;32493;-82
2024/01/31 06:23:38;;;;;;;6.45;2.72;;;;;;;-1.16;59.04;101893.69;4349720;32;32692;-83
2024/01/31 06:26:06;;;;;;;1.55;1.45;;;;;;;-1.09;58.76;101898.31;4356141;32;33177;-83
2024/01/31 06:28:38;;;;;;;2.40;0.90;;;;;;;-0.94;58.62;101898.88;4357884;32;33981;-84
2024/01/31 06:31:25;;;;;;;2.20;2.03;;;;;;;-0.89;58.15;101894.72;4347850;32;34733;-84
2024/01/31 06:33:53;;;;;;;1.27;1.05;;;;;;;-0.79;57.92;101894.22;4351741;32;32725;-83
2024/01/31 06:36:22;;;;;;;1.70;1.60;;;;;;;-0.63;57.25;101892.16;4361740;32;33628;-83
2024/01/31 06:38:49;;;;;;;4.12;3.83;;;;;;;-0.74;57.71;101896.09;4361736;32;33478;-82
2024/01/31 06:41:18;;;;;;;5.07;2.67;;;;;;;-0.79;57.65;101909.78;4356850;32;32780;-83
2024/01/31 06:43:46;;;;;;;3.35;3.15;;;;;;;-0.66;57.49;101902.47;4346032;32;33115;-82
2024/01/31 06:46:16;;;;;;;0.75;0.75;;;;;;;-0.54;57.72;101895.09;4373763;32;33711;-83
2024/01/31 06:48:43;;;;;;;2.60;2.50;;;;;;;-0.71;57.92;101904.87;4342369;32;33689;-83
2024/01/31 06:51:11;;;;;;;0.85;0.85;;;;;;;-0.60;58.05;101913.03;4359196;32;33928;-82
2024/01/31 06:53:39;;;;;;;1.60;1.50;;;;;;;-0.45;57.53;101903.19;4358267;32;33476;-83
2024/01/31 06:56:15;;;;;;;2.42;2.25;;;;;;;-0.49;57.08;101897.84;4372161;32;34387;-83
2024/01/31 06:58:47;;;;;;;3.75;3.45;;;;;;;-0.46;57.61;101887.56;4373245;32;33794;-83
2024/01/31 07:01:19;;;;;;;2.83;2.30;;;;;;;-0.48;57.88;101900.47;4363332;32;31927;-83
2024/01/31 07:03:47;;;;;;;4.12;3.30;;;;;;;-0.42;57.86;101892.94;4355025;32;33849;-85
2024/01/31 07:06:16;;;;;;;2.03;1.90;;;;;;;-0.29;57.81;101896.81;4363778;32;33349;-84
2024/01/31 07:08:43;;;;;;;2.37;2.20;;;;;;;-0.32;58.24;101894.13;4369457;32;34114;-84
2024/01/31 07:11:11;;;;;;;0.68;0.68;;;;;;;-0.21;57.67;101900.56;4372815;32;33059;-84
2024/01/31 07:13:39;;;;;;;6.65;5.25;;;;;;;-0.16;58.32;101896.38;4356859;32;32394;-84
2024/01/31 07:16:09;;;;;;;4.18;3.80;;;;;;;-0.24;58.44;101899.56;4350460;32;32229;-84
2024/01/31 07:18:41;;;;;;;2.30;2.10;;;;;;;-0.30;59.39;101889.84;4355978;32;34636;-84
2024/01/31 07:21:10;;;;;;;3.28;2.62;;;;;;;-0.06;59.10;101887.19;4361896;32;33407;-84
2024/01/31 07:23:41;;;;;;;1.70;1.62;;;;;;;0.03;58.42;101897.87;4334084;32;33269;-84
2024/01/31 07:26:09;;;;;;;3.12;2.20;;;;;;;0.14;58.76;101899.13;4346757;32;34338;-84
2024/01/31 07:28:37;;;;;;;5.53;3.55;;;;;;;0.30;58.85;101899.62;4360241;32;33001;-84
2024/01/31 07:31:06;;;;;;;2.12;1.65;;;;;;;0.43;58.64;101896.56;4364377;32;34068;-86
2024/01/31 07:33:36;;;;;;;3.53;3.22;;;;;;;0.58;58.53;101901.34;4372317;32;32456;-83
2024/01/31 07:36:04;;;;;;;7.43;6.85;;;;;;;0.34;59.51;101902.38;4373000;32;33018;-84
2024/01/31 07:38:32;;;;;;;0.60;0.60;;;;;;;0.66;59.02;101905.94;4367920;32;33304;-84
2024/01/31 07:40:59;;;;;;;5.55;4.10;;;;;;;0.75;58.98;101897.53;4359541;32;33249;-84
2024/01/31 07:43:28;;;;;;;5.97;2.72;;;;;;;0.87;59.29;101903.09;4351190;32;32661;-84
2024/01/31 07:45:55;;;;;;;0.80;0.80;;;;;;;0.94;59.65;101896.34;4339806;32;33158;-84
2024/01/31 07:48:23;;;;;;;2.60;2.40;;;;;;;1.50;58.60;101904.87;4376855;32;33120;-84
2024/01/31 07:50:52;;;;;;;2.70;2.60;;;;;;;1.54;59.23;101904.13;4378707;32;34367;-84
2024/01/31 07:53:20;;;;;;;2.55;2.45;;;;;;;1.54;59.16;101904.13;4363204;32;32611;-85
2024/01/31 07:55:47;;;;;;;2.70;2.55;;;;;;;1.58;59.88;101898.16;4360951;32;34700;-84
2024/01/31 07:58:16;;;;;;;1.05;1.05;;;;;;;1.61;60.34;101903.41;4340596;32;32541;-84
2024/01/31 08:00:43;;;;;;;3.00;2.80;;;;;;;1.71;60.00;101895.03;4349715;32;33342;-83
2024/01/31 08:03:11;;;;;;;4.25;3.87;;;;;;;1.90;60.21;101890.25;4362369;32;33186;-84
2024/01/31 08:05:39;;;;;;;1.62;1.52;;;;;;;1.99;60.16;101888.81;4350980;32;32672;-84
2024/01/31 08:08:07;;;;;;;6.40;5.82;;;;;;;2.09;60.48;101891.59;4355029;32;33969;-84
2024/01/31 08:10:35;;;;;;;3.75;3.53;;;;;;;2.29;60.47;101892.97;4376058;32;33840;-84
2024/01/31 08:13:04;;;;;;;4.25;3.95;;;;;;;2.46;59.80;101891.63;4360379;32;32492;-84
2024/01/31 08:15:32;;;;;;;2.72;2.55;;;;;;;2.26;60.77;101891.16;4361074;32;34103;-84
2024/01/31 08:18:01;;;;;;;2.50;2.40;;;;;;;2.62;60.51;101894.59;4364238;32;34446;-84
2024/01/31 08:20:30;;;;;;;0.62;0.62;;;;;;;3.17;59.34;101893.12;4350097;32;32992;-84
2024/01/31 08:22:58;;;;;;;2.10;2.00;;;;;;;3.20;58.97;101885.38;4366744;32;31347;-84
2024/01/31 08:25:26;;;;;;;4.22;3.50;;;;;;;3.13;59.85;101889.56;4370616;32;32687;-84
2024/01/31 08:27:54;;;;;;;2.90;2.70;;;;;;;2.96;60.95;101886.66;4361143;32;32391;-84
2024/01/31 08:30:21;;;;;;;2.37;2.28;;;;;;;3.12;61.15;101884.34;4352304;32;31973;-84
2024/01/31 08:32:49;;;;;;;4.03;3.70;;;;;;;3.16;61.12;101874.00;4358529;32;34188;-84
2024/01/31 08:35:17;;;;;;;6.72;4.25;;;;;;;3.06;61.77;101874.66;4350882;32;32963;-84
2024/01/31 08:37:45;;;;;;;2.40;2.30;;;;;;;3.32;61.42;101873.44;4373299;32;33416;-84
2024/01/31 08:40:14;;;;;;;2.50;2.40;;;;;;;3.50;61.04;101866.78;4377096;32;34583;-85
2024/01/31 08:42:47;;;;;;;5.68;2.87;;;;;;;3.74;60.83;101859.38;4380944;32;34622;-85
2024/01/31 08:45:15;;;;;;;1.50;1.45;;;;;;;3.87;60.96;101860.47;4338418;32;34409;-86
2024/01/31 08:47:44;;;;;;;1.95;1.85;;;;;;;4.16;60.29;101863.56;4350956;32;33664;-87
2024/01/31 08:50:12;;;;;;;1.27;1.27;;;;;;;4.07;60.62;101859.06;4349566;32;31984;-87
2024/01/31 08:52:41;;;;;;;2.05;1.95;;;;;;;4.77;58.89;101848.72;4348422;32;32267;-86
2024/01/31 08:55:09;;;;;;;0.95;0.95;;;;;;;5.01;57.84;101852.50;4356104;32;34509;-86
2024/01/31 08:57:38;;;;;;;5.70;1.98;;;;;;;4.87;58.23;101842.75;4380472;32;31932;-86
2024/01/31 09:00:07;;;;;;;2.90;2.70;;;;;;;5.13;57.37;101842.19;4351049;32;32935;-86
2024/01/31 09:02:35;;;;;;;7.40;2.60;;;;;;;5.18;56.88;101845.75;4361817;32;33840;-87
2024/01/31 09:05:04;;;;;;;1.92;1.83;;;;;;;5.13;56.74;101839.56;4356894;32;32358;-87
2024/01/31 09:07:32;;;;;;;4.57;4.28;;;;;;;4.90;58.12;101844.53;4354031;32;32658;-87
2024/01/31 09:09:59;;;;;;;1.00;1.00;;;;;;;5.13;57.94;101843.06;4376542;32;31956;-87
2024/01/31 09:12:29;;;;;;;7.28;2.25;;;;;;;5.14;58.00;101838.72;4363630;32;34443;-86
2024/01/31 09:14:58;;;;;;;2.65;2.45;;;;;;;5.27;57.91;101837.97;4359260;32;33261;-87
2024/01/31 09:17:25;;;;;;;2.35;2.25;;;;;;;5.40;57.74;101845.09;4361142;32;34052;-87
2024/01/31 09:19:53;;;;;;;3.58;3.37;;;;;;;5.43;57.79;101851.22;4372689;32;32973;-87
2024/01/31 09:22:22;;;;;;;3.78;3.53;;;;;;;5.44;57.97;101848.62;4348222;32;32614;-87
2024/01/31 09:24:49;;;;;;;9.32;3.12;;;;;;;5.35;57.87;101845.91;4389766;32;32550;-87
2024/01/31 09:27:19;;;;;;;2.97;2.67;;;;;;;5.30;58.36;101851.09;4363844;32;32444;-87
2024/01/31 09:29:47;;;;;;;3.45;2.42;;;;;;;5.52;57.63;101846.09;4360098;32;32819;-87
2024/01/31 09:32:15;;;;;;;2.97;2.78;;;;;;;5.65;57.58;101843.59;4359012;32;33776;-87
2024/01/31 09:34:43;;;;;;;1.58;1.55;;;;;;;5.68;57.60;101841.84;4370499;32;34798;-86
2024/01/31 09:37:12;;;;;;;2.78;2.58;;;;;;;5.81;57.37;101844.59;4371938;32;33898;-87
2024/01/31 09:39:39;;;;;;;2.22;2.10;;;;;;;6.17;55.17;101835.28;4360146;32;32445;-87
2024/01/31 09:42:07;;;;;;;1.75;1.65;;;;;;;5.99;55.68;101827.31;4361170;32;34329;-87
2024/01/31 09:44:35;;;;;;;1.40;1.30;;;;;;;6.27;55.16;101824.00;4341813;32;33959;-87
2024/01/31 09:47:03;;;;;;;2.17;2.03;;;;;;;5.96;53.28;101822.03;4359141;32;33287;-87
2024/01/31 09:49:31;;;;;;;0.85;0.85;;;;;;;6.13;52.77;101830.91;4362120;32;31874;-87
2024/01/31 09:51:59;;;;;;;0.82;0.82;;;;;;;6.21;52.64;101825.69;4359249;32;33439;-87
2024/01/31 09:54:28;;;;;;;0.52;0.52;;;;;;;5.64;52.16;101815.59;4373318;32;33939;-87
2024/01/31 09:56:57;;;;;;;1.92;0.95;;;;;;;5.98;52.03;101815.03;4369008;32;33178;-87
2024/01/31 09:59:25;;;;;;;1.83;1.73;;;;;;;6.35;51.30;101811.78;4347222;32;31807;-86
2024/01/31 10:01:54;;;;;;;0.47;0.47;;;;;;;6.39;51.46;101808.31;4358555;32;32165;-87
2024/01/31 10:04:22;;;;;;;1.15;1.12;;;;;;;6.18;51.22;101805.59;4358991;32;34643;-87
2024/01/31 10:06:51;;;;;;;2.22;2.12;;;;;;;6.54;50.35;101804.00;4344471;32;32235;-87
2024/01/31 10:09:20;;;;;;;3.85;2.03;;;;;;;6.60;49.60;101797.06;4351342;32;33760;-87
2024/01/31 10:11:48;;;;;;;0.00;0.00;;;;;;;6.15;49.90;101802.94;4365222;32;32361;-88
2024/01/31 10:14:16;;;;;;;1.25;1.15;;;;;;;6.31;49.89;101799.50;4359400;32;33674;-87
2024/01/31 10:16:44;;;;;;;0.62;0.62;;;;;;;6.32;49.60;101785.56;4355574;32;99215;-87
2024/01/31 10:19:12;;;;;;;1.23;1.08;;;;;;;6.68;49.43;101783.94;4371173;32;33654;-88
2024/01/31 10:21:40;;;;;;;2.28;2.08;;;;;;;6.30;49.99;101787.28;4354715;32;34024;-87
2024/01/31 10:24:08;;;;;;;1.65;1.55;;;;;;;6.37;50.17;101783.81;4346088;32;32411;-87
2024/01/31 10:26:38;;;;;;;0.43;0.43;;;;;;;6.16;50.08;101794.19;4362067;32;30969;-86
2024/01/31 10:29:06;;;;;;;0.75;0.70;;;;;;;6.38;49.89;101782.94;4358271;32;32187;-87
2024/01/31 10:31:39;;;;;;;2.12;1.95;;;;;;;6.58;49.73;101779.53;4355322;32;33220;-87
2024/01/31 10:34:08;;;;;;;1.60;1.50;;;;;;;6.60;50.37;101769.94;4367738;32;33991;-85
2024/01/31 10:36:40;;;;;;;1.75;1.65;;;;;;;6.61;49.93;101769.94;4360771;32;33292;-87
2024/01/31 10:39:10;;;;;;;2.37;2.10;;;;;;;6.95;48.69;101769.19;4352677;32;32775;-86
2024/01/31 10:41:41;;;;;;;1.85;1.70;;;;;;;6.78;49.17;101764.72;4353647;32;33306;-87
2024/01/31 10:44:13;;;;;;;1.30;1.20;;;;;;;6.61;48.64;101758.56;4380407;32;33649;-87
2024/01/31 10:46:47;;;;;;;1.20;1.20;;;;;;;7.04;48.68;101756.94;4347313;32;33820;-86
2024/01/31 10:49:18;;;;;;;3.40;2.45;;;;;;;6.95;47.98;101756.03;4347371;32;33483;-88
2024/01/31 10:51:50;;;;;;;1.80;1.75;;;;;;;7.22;47.71;101742.97;4360162;32;34803;-87
2024/01/31 10:54:21;;;;;;;3.92;1.75;;;;;;;7.16;48.39;101740.31;4358453;32;33085;-87
2024/01/31 10:56:49;;;;;;;2.45;2.08;;;;;;;7.03;48.76;101738.56;4347974;32;33816;-87
2024/01/31 10:59:17;;;;;;;4.00;2.70;;;;;;;7.18;48.64;101738.56;4385024;32;33528;-87
2024/01/31 11:01:54;;;;;;;7.60;1.52;;;;;;;7.34;49.02;101724.56;4371463;32;32809;-87
2024/01/31 11:04:22;;;;;;;1.87;1.70;;;;;;;7.37;48.01;101727.19;4373229;32;33061;-88
2024/01/31 11:06:50;;;;;;;2.05;1.92;;;;;;;7.85;47.01;101738.56;4358680;32;32714;-87
2024/01/31 11:09:22;;;;;;;1.58;1.48;;;;;;;7.43;47.20;101735.06;4361522;32;32053;-87
2024/01/31 11:12:01;;;;;;;6.47;2.62;;;;;;;7.54;47.37;101735.06;4373773;32;33798;-88
2024/01/31 11:14:29;;;;;;;0.77;0.65;;;;;;;7.69;47.17;101731.53;4370830;32;33891;-86
2024/01/31 11:17:26;;;;;;;0.82;0.82;;;;;;;7.21;47.47;101729.81;4371335;32;33704;-87
2024/01/31 11:20:01;;;;;;;0.55;0.55;;;;;;;7.65;46.70;101725.44;4334330;32;32706;-87
2024/01/31 11:22:29;;;;;;;1.30;1.08;;;;;;;7.55;47.31;101722.78;4360594;32;35637;-87
2024/01/31 11:25:02;;;;;;;0.90;0.90;;;;;;;7.53;47.26;101714.91;4359569;32;34007;-87
2024/01/31 11:27:31;;;;;;;0.15;0.15;;;;;;;7.54;46.76;101715.78;4375444;32;33822;-87
2024/01/31 11:29:59;;;;;;;0.60;0.60;;;;;;;7.64;46.41;101714.91;4359188;32;31708;-87
2024/01/31 11:32:27;;;;;;;1.05;1.05;;;;;;;7.85;46.55;101721.91;4358970;32;36711;-87
2024/01/31 11:34:59;;;;;;;2.75;1.60;;;;;;;7.81;46.58;101712.25;4371159;32;34448;-88